This is the latest recevied weather packets stored in our database for station/object I1SXT-13. If no packets are shown the sender has not sent any weather packets the latest 10 day(s).
| Time | Temp. | Humidity | Pressure | Rain* | Wind** | Luminosity | Snow |
|---|---|---|---|---|---|---|---|
| 1777665869 | 16.11° C | 39% | 1026.2 hPa | 0 mm | - | - | - |
| 1777665565 | 16.11° C | 42% | 1026.2 hPa | 0 mm | - | - | - |
| 1777665268 | 16.67° C | 39% | 1026 hPa | 0 mm | - | - | - |
| 1777664964 | 16.67° C | 38% | 1026.3 hPa | 0 mm | - | - | - |
| 1777664370 | 16.11° C | 38% | 1025.4 hPa | 0 mm | - | - | - |
| 1777664066 | 16.11° C | 40% | 1025.3 hPa | 0 mm | - | - | - |
| 1777663769 | 16.11° C | 40% | 1025.3 hPa | 0 mm | - | - | - |
| 1777663464 | 16.11° C | 41% | 1025.6 hPa | 0 mm | - | - | - |
| 1777663167 | 15.56° C | 45% | 1025.7 hPa | 0 mm | - | - | - |
| 1777662864 | 16.11° C | 45% | 1024.6 hPa | 0 mm | - | - | - |
| 1777662566 | 16.11° C | 40% | 1024.9 hPa | 0 mm | - | - | - |
| 1777662269 | 15.56° C | 46% | 1024.8 hPa | 0 mm | - | - | - |
| 1777661668 | 16.11° C | 42% | 1024.4 hPa | 0 mm | - | - | - |
| 1777661364 | 15.56° C | 43% | 1024.7 hPa | 0 mm | - | - | - |
| 1777661067 | 15.56° C | 43% | 1024.5 hPa | 0 mm | - | - | - |
| 1777660770 | 15.56° C | 46% | 1024.9 hPa | 0 mm | - | - | - |
| 1777660466 | 16.11° C | 47% | 1024.8 hPa | 0 mm | - | - | - |
| 1777660169 | 16.11° C | 46% | 1024.7 hPa | 0 mm | - | - | - |
| 1777659865 | 16.67° C | 42% | 1024.2 hPa | 0 mm | - | - | - |
| 1777659568 | 17.22° C | 41% | 1024.6 hPa | 0 mm | - | - | - |
| 1777659264 | 17.22° C | 40% | 1025 hPa | 0 mm | - | - | - |
| 1777658966 | 17.22° C | 42% | 1024.3 hPa | 0 mm | - | - | - |
| 1777658669 | 17.78° C | 40% | 1024.9 hPa | 0 mm | - | - | - |
| 1777658365 | 17.78° C | 37% | 1024.6 hPa | 0 mm | - | - | - |
| 1777658068 | 17.78° C | 43% | 1024.4 hPa | 0 mm | - | - | - |
* Rain since midnight (hover to see other rain measurements)
** Current wind speed in m/s (hover to see current wind gust speed)